createdAt,value
2022-08-26T00:04:02.506Z,18.40
2022-08-26T00:08:25.823Z,18.30
2022-08-26T00:12:48.483Z,18.30
2022-08-26T00:17:11.204Z,18.20
2022-08-26T00:21:33.623Z,18.10
2022-08-26T00:25:56.829Z,18.10
2022-08-26T00:30:25.104Z,18.10
2022-08-26T00:34:49.224Z,18.00
2022-08-26T00:39:11.905Z,18.00
2022-08-26T00:43:46.071Z,18.00
2022-08-26T00:48:11.509Z,17.90
2022-08-26T00:52:35.124Z,17.80
2022-08-26T00:57:00.321Z,17.80
2022-08-26T01:01:23.090Z,17.80
2022-08-26T01:05:46.916Z,17.80
2022-08-26T01:10:17.785Z,17.80
2022-08-26T01:14:41.344Z,17.80
2022-08-26T01:19:32.064Z,17.80
2022-08-26T01:23:57.219Z,17.70
2022-08-26T01:28:25.625Z,17.70
2022-08-26T01:32:50.939Z,17.60
2022-08-26T01:37:22.306Z,17.50
2022-08-26T01:41:46.686Z,17.40
2022-08-26T01:46:17.812Z,17.40
2022-08-26T01:50:41.159Z,17.30
2022-08-26T01:55:07.269Z,17.30
2022-08-26T01:59:30.663Z,17.30
2022-08-26T02:04:36.819Z,17.40
2022-08-26T02:09:02.441Z,17.30
2022-08-26T02:13:30.342Z,17.30
2022-08-26T02:17:53.528Z,17.30
2022-08-26T02:22:24.648Z,17.20
2022-08-26T02:26:48.502Z,17.20
2022-08-26T02:31:10.887Z,17.10
2022-08-26T02:35:35.114Z,17.10
2022-08-26T02:39:57.721Z,17.20
2022-08-26T02:44:20.501Z,17.10
2022-08-26T02:48:42.902Z,17.10
2022-08-26T02:53:06.940Z,17.10
2022-08-26T02:57:29.642Z,17.00
2022-08-26T03:01:52.322Z,16.90
2022-08-26T03:06:18.582Z,16.90
2022-08-26T03:10:41.542Z,16.80
2022-08-26T03:15:17.304Z,16.80
2022-08-26T03:19:40.195Z,16.80
2022-08-26T03:24:04.101Z,16.80
2022-08-26T03:28:27.173Z,16.70
2022-08-26T03:32:49.861Z,16.70
2022-08-26T03:37:12.181Z,16.70
2022-08-26T03:41:36.961Z,16.60
2022-08-26T03:45:59.642Z,16.60
2022-08-26T03:50:24.265Z,16.60
2022-08-26T03:54:47.203Z,16.60
2022-08-26T03:59:09.441Z,16.60
2022-08-26T04:03:50.522Z,16.50
2022-08-26T04:08:12.914Z,16.60
2022-08-26T04:12:37.761Z,16.60
2022-08-26T04:17:00.282Z,16.60
2022-08-26T04:21:23.182Z,16.60
2022-08-26T04:25:46.215Z,16.50
2022-08-26T04:30:10.484Z,16.60
2022-08-26T04:34:33.081Z,16.60
2022-08-26T04:38:57.019Z,16.70
2022-08-26T04:43:19.882Z,16.80
2022-08-26T04:47:42.181Z,17.00
2022-08-26T04:52:05.541Z,17.30
2022-08-26T04:56:34.296Z,17.70
2022-08-26T05:00:56.932Z,18.70
2022-08-26T05:05:19.402Z,19.80
2022-08-26T05:09:43.681Z,21.20
2022-08-26T05:14:06.961Z,22.80
2022-08-26T05:18:30.564Z,24.20
2022-08-26T05:22:52.802Z,25.50
2022-08-26T05:27:15.721Z,26.70
2022-08-26T05:31:40.361Z,27.80
2022-08-26T05:36:12.482Z,29.10
2022-08-26T05:40:40.972Z,30.00
2022-08-26T05:45:04.602Z,31.00
2022-08-26T05:49:27.001Z,32.20
2022-08-26T05:53:54.900Z,33.10
2022-08-26T05:58:20.501Z,34.00
2022-08-26T06:02:42.937Z,34.60
2022-08-26T06:07:05.392Z,35.10
2022-08-26T06:11:29.896Z,35.70
2022-08-26T06:15:53.595Z,36.30
2022-08-26T06:20:16.201Z,36.70
2022-08-26T06:24:58.245Z,37.40
2022-08-26T06:29:24.083Z,37.70
2022-08-26T06:33:48.021Z,37.70
2022-08-26T06:38:10.902Z,38.70
2022-08-26T06:42:34.101Z,40.50
2022-08-26T06:46:56.645Z,41.50
2022-08-26T06:51:23.733Z,42.40
2022-08-26T06:55:47.401Z,43.30
2022-08-26T07:00:15.881Z,44.30
2022-08-26T07:04:42.402Z,44.80
2022-08-26T07:09:07.421Z,45.00
2022-08-26T07:13:32.384Z,45.10
2022-08-26T07:17:54.921Z,45.80
2022-08-26T07:22:18.984Z,46.10
2022-08-26T07:26:43.069Z,45.60
2022-08-26T07:31:11.115Z,44.90
2022-08-26T07:35:34.942Z,44.40
2022-08-26T07:39:58.401Z,44.20
2022-08-26T07:44:21.379Z,44.80
2022-08-26T07:48:46.041Z,44.50
2022-08-26T07:53:09.264Z,45.80
2022-08-26T07:57:33.881Z,47.10
2022-08-26T08:02:00.224Z,47.60
2022-08-26T08:06:27.334Z,48.00
2022-08-26T08:10:50.714Z,47.50
2022-08-26T08:15:14.648Z,48.40
2022-08-26T08:19:39.213Z,49.80
2022-08-26T08:24:02.021Z,50.20
2022-08-26T08:28:24.563Z,50.20
2022-08-26T08:32:48.382Z,50.00
2022-08-26T08:37:11.005Z,49.40
2022-08-26T08:42:28.242Z,48.50
2022-08-26T08:47:06.482Z,48.00
2022-08-26T08:51:50.703Z,48.90
2022-08-26T08:56:13.042Z,49.70
2022-08-26T09:00:49.528Z,50.90
2022-08-26T09:05:28.803Z,48.90
2022-08-26T09:10:01.382Z,46.40
2022-08-26T09:14:23.943Z,47.40
2022-08-26T09:19:07.423Z,48.70
2022-08-26T09:23:32.411Z,48.00
2022-08-26T09:27:54.962Z,43.70
2022-08-26T09:32:24.542Z,42.90
2022-08-26T09:36:52.862Z,45.00
2022-08-26T09:41:33.041Z,46.30
2022-08-26T09:46:19.806Z,44.20
2022-08-26T09:51:03.762Z,43.00
2022-08-26T09:55:34.141Z,36.60
2022-08-26T09:59:56.942Z,32.00
2022-08-26T10:04:26.908Z,30.60
2022-08-26T10:08:59.323Z,30.10
2022-08-26T10:13:42.695Z,29.60
2022-08-26T10:18:19.882Z,29.40
2022-08-26T10:22:45.964Z,27.90
2022-08-26T10:27:59.303Z,26.30
2022-08-26T10:32:48.994Z,25.30
2022-08-26T10:37:20.803Z,23.70
2022-08-26T10:41:45.773Z,22.80
2022-08-26T10:46:20.198Z,22.30
2022-08-26T10:50:47.609Z,21.90
2022-08-26T10:55:21.082Z,21.90
2022-08-26T11:00:34.844Z,22.20
2022-08-26T11:05:15.372Z,22.30
2022-08-26T11:09:49.749Z,21.60
2022-08-26T11:14:29.250Z,20.90
2022-08-26T11:18:56.337Z,20.60
2022-08-26T11:23:24.743Z,20.50
2022-08-26T11:27:51.698Z,20.60
2022-08-26T11:32:56.216Z,20.60
2022-08-26T11:41:49.782Z,20.90
2022-08-26T11:46:30.629Z,21.10
2022-08-26T11:51:02.684Z,21.40
2022-08-26T11:55:25.534Z,21.70
2022-08-26T11:59:48.144Z,22.00
2022-08-26T12:04:25.437Z,22.30
2022-08-26T12:10:10.077Z,22.70
2022-08-26T12:14:32.208Z,22.90
2022-08-26T12:18:55.619Z,23.40
2022-08-26T12:23:30.429Z,23.90
2022-08-26T12:27:54.072Z,24.30
2022-08-26T12:32:18.648Z,24.50
2022-08-26T12:36:53.921Z,24.70
2022-08-26T12:41:48.950Z,24.80
2022-08-26T12:46:17.089Z,25.00
2022-08-26T12:50:49.130Z,25.20
2022-08-26T12:55:33.066Z,25.30
2022-08-26T13:00:28.359Z,25.30
2022-08-26T13:05:00.871Z,25.20
2022-08-26T13:09:23.149Z,25.10
2022-08-26T13:13:47.369Z,25.00
2022-08-26T13:18:09.248Z,25.30
2022-08-26T13:22:31.566Z,25.60
2022-08-26T13:26:53.749Z,26.00
2022-08-26T13:31:17.617Z,26.00
2022-08-26T13:35:40.968Z,25.90
2022-08-26T13:40:07.487Z,25.90
2022-08-26T13:44:29.751Z,25.70
2022-08-26T13:48:53.689Z,25.90
2022-08-26T13:53:17.360Z,26.20
2022-08-26T13:57:39.408Z,26.30
2022-08-26T14:02:03.108Z,26.20
2022-08-26T14:06:25.902Z,25.80
2022-08-26T14:15:18.281Z,24.60
2022-08-26T14:19:44.389Z,24.20
2022-08-26T14:24:07.329Z,24.10
2022-08-26T14:28:29.556Z,24.00
2022-08-26T14:32:56.172Z,23.90
2022-08-26T14:37:19.129Z,23.80
2022-08-26T14:41:55.001Z,23.70
2022-08-26T14:46:18.544Z,23.70
2022-08-26T14:50:40.950Z,23.50
2022-08-26T14:55:02.906Z,23.50
2022-08-26T14:59:29.246Z,23.50
2022-08-26T15:03:51.789Z,23.50
2022-08-26T15:08:14.314Z,23.40
2022-08-26T15:12:36.233Z,23.30
2022-08-26T15:16:58.629Z,23.30
2022-08-26T15:21:21.609Z,23.20
2022-08-26T15:25:45.248Z,23.30
2022-08-26T15:30:12.390Z,23.50
2022-08-26T15:34:34.349Z,23.70
2022-08-26T15:38:58.768Z,23.70
2022-08-26T15:43:28.782Z,23.70
2022-08-26T15:48:00.938Z,23.70
2022-08-26T15:52:23.308Z,23.50
2022-08-26T15:56:47.937Z,23.60
2022-08-26T16:01:10.408Z,23.70
2022-08-26T16:05:33.058Z,23.70
2022-08-26T16:09:55.144Z,23.70
2022-08-26T16:14:17.169Z,23.50
2022-08-26T16:18:39.561Z,23.30
2022-08-26T16:23:02.668Z,23.10
2022-08-26T16:27:25.209Z,22.90
2022-08-26T16:31:47.932Z,22.80
2022-08-26T16:36:11.010Z,22.70
2022-08-26T16:40:33.722Z,22.80
2022-08-26T16:44:55.788Z,22.90
2022-08-26T16:49:18.089Z,23.00
2022-08-26T16:53:40.092Z,23.00
2022-08-26T16:58:02.425Z,22.90
2022-08-26T17:02:24.533Z,22.70
2022-08-26T17:06:47.432Z,22.70
2022-08-26T17:11:09.797Z,22.60
2022-08-26T17:15:32.155Z,22.50
2022-08-26T17:19:54.510Z,22.50
2022-08-26T17:24:16.469Z,22.50
2022-08-26T17:28:39.269Z,22.40
2022-08-26T17:33:01.360Z,22.30
2022-08-26T17:37:34.838Z,22.20
2022-08-26T17:41:59.649Z,22.10
2022-08-26T17:46:21.966Z,22.00
2022-08-26T17:50:46.290Z,21.80
2022-08-26T17:55:15.368Z,21.50
2022-08-26T17:59:40.960Z,21.30
2022-08-26T18:04:04.067Z,21.20
2022-08-26T18:08:26.431Z,21.00
2022-08-26T18:12:48.909Z,20.90
2022-08-26T18:17:11.181Z,20.70
2022-08-26T18:21:36.319Z,20.60
2022-08-26T18:25:58.590Z,20.50
2022-08-26T18:30:22.057Z,20.40
2022-08-26T18:34:44.349Z,20.30
2022-08-26T18:39:07.733Z,20.30
2022-08-26T18:43:29.920Z,20.30
2022-08-26T18:47:52.130Z,20.40
2022-08-26T18:52:15.055Z,20.40
2022-08-26T18:56:39.963Z,20.30
2022-08-26T19:01:02.135Z,20.30
2022-08-26T19:05:25.643Z,20.30
2022-08-26T19:09:47.809Z,20.30
2022-08-26T19:14:16.869Z,20.30
2022-08-26T19:18:39.149Z,20.30
2022-08-26T19:23:05.747Z,20.30
2022-08-26T19:27:32.589Z,20.40
2022-08-26T19:31:54.749Z,20.40
2022-08-26T19:36:23.749Z,20.50
2022-08-26T19:40:45.715Z,20.40
2022-08-26T19:45:24.853Z,20.40
2022-08-26T19:49:47.498Z,20.40
2022-08-26T19:54:09.481Z,20.50
2022-08-26T19:58:31.334Z,20.50
2022-08-26T20:02:54.093Z,20.50
2022-08-26T20:07:18.886Z,20.40
2022-08-26T20:11:41.229Z,20.40
2022-08-26T20:16:03.874Z,20.30
2022-08-26T20:20:44.793Z,20.30
2022-08-26T20:26:08.920Z,20.20
2022-08-26T20:32:12.027Z,20.20
2022-08-26T20:42:20.305Z,20.00
2022-08-26T20:46:43.074Z,20.10
2022-08-26T20:51:05.501Z,20.10
2022-08-26T20:55:27.888Z,20.20
2022-08-26T20:59:50.422Z,20.10
2022-08-26T21:04:18.822Z,20.20
2022-08-26T21:08:43.145Z,20.20
2022-08-26T21:13:05.405Z,20.20
2022-08-26T21:17:27.662Z,20.20
2022-08-26T21:21:50.823Z,20.20
2022-08-26T21:26:16.321Z,20.30
2022-08-26T21:30:40.562Z,20.30
2022-08-26T21:35:04.204Z,20.20
2022-08-26T21:39:26.560Z,20.30
2022-08-26T21:43:51.182Z,20.20
2022-08-26T21:48:13.331Z,20.20
2022-08-26T21:52:37.021Z,20.20
2022-08-26T21:56:59.221Z,20.30
2022-08-26T22:01:25.361Z,20.30
2022-08-26T22:05:52.400Z,20.40
2022-08-26T22:10:14.640Z,20.40
2022-08-26T22:14:39.844Z,20.40
2022-08-26T22:19:02.200Z,20.50
2022-08-26T22:23:24.941Z,20.50
2022-08-26T22:27:46.760Z,20.40
2022-08-26T22:32:09.219Z,20.20
2022-08-26T22:36:31.472Z,19.60
2022-08-26T22:40:56.646Z,18.30
2022-08-26T22:45:18.780Z,17.70
2022-08-26T22:49:40.721Z,17.30
2022-08-26T22:54:02.821Z,17.10
2022-08-26T22:58:30.208Z,17.00
2022-08-26T23:02:53.028Z,17.20
2022-08-26T23:07:15.061Z,17.20
2022-08-26T23:11:42.139Z,17.20
2022-08-26T23:16:09.186Z,17.10
2022-08-26T23:20:32.513Z,17.10
2022-08-26T23:24:54.575Z,17.30
2022-08-26T23:29:17.441Z,17.40
2022-08-26T23:33:58.300Z,17.40
2022-08-26T23:38:20.181Z,17.40
2022-08-26T23:42:42.144Z,17.30
2022-08-26T23:47:05.901Z,17.40
2022-08-26T23:51:46.762Z,17.50
2022-08-26T23:56:16.542Z,17.60
